createdAt,value
2023-01-17T00:02:46.467Z,96670.75
2023-01-17T00:08:02.082Z,96684.06
2023-01-17T00:13:00.628Z,96687.66
2023-01-17T00:17:57.477Z,96704.69
2023-01-17T00:23:12.430Z,96701.72
2023-01-17T00:28:09.108Z,96707.16
2023-01-17T00:33:05.805Z,96717.81
2023-01-17T00:38:16.652Z,96722.06
2023-01-17T00:43:34.576Z,96740.75
2023-01-17T00:48:50.068Z,96743.75
2023-01-17T00:54:05.176Z,96751.63
2023-01-17T00:59:21.427Z,96752.31
2023-01-17T01:04:36.474Z,96766.44
2023-01-17T01:09:51.577Z,96759.22
2023-01-17T01:15:07.291Z,96776.63
2023-01-17T01:20:22.717Z,96779.75
2023-01-17T01:25:37.872Z,96787.44
2023-01-17T01:30:52.917Z,96808.09
2023-01-17T01:35:54.762Z,96811.69
2023-01-17T01:40:53.961Z,96819.41
2023-01-17T01:45:56.068Z,96821.72
2023-01-17T01:50:52.716Z,96826.34
2023-01-17T01:55:51.231Z,96825.19
2023-01-17T02:00:47.826Z,96830.94
2023-01-17T02:05:44.507Z,96830.81
2023-01-17T02:10:41.986Z,96833.44
2023-01-17T02:15:57.756Z,96839.16
2023-01-17T02:21:03.575Z,96842.59
2023-01-17T02:26:24.863Z,96846.22
2023-01-17T02:31:36.915Z,96850.31
2023-01-17T02:36:40.004Z,96856.34
2023-01-17T02:41:40.679Z,96863.25
2023-01-17T02:46:48.048Z,96862.25
2023-01-17T02:52:15.959Z,96876.00
2023-01-17T02:57:46.431Z,96893.03
2023-01-17T03:03:03.188Z,96900.91
2023-01-17T03:08:02.442Z,96914.81
2023-01-17T03:13:00.999Z,96921.81
2023-01-17T03:18:03.643Z,96926.03
2023-01-17T03:23:00.194Z,96944.56
2023-01-17T03:27:56.590Z,96944.84
2023-01-17T03:32:53.024Z,96955.34
2023-01-17T03:37:49.534Z,96962.69
2023-01-17T03:42:45.991Z,96972.22
2023-01-17T03:47:42.383Z,96966.84
2023-01-17T03:52:39.097Z,96995.19
2023-01-17T03:57:35.532Z,97006.06
2023-01-17T04:02:31.916Z,97019.78
2023-01-17T04:07:28.301Z,97029.56
2023-01-17T04:12:24.668Z,97040.47
2023-01-17T04:17:21.184Z,97055.63
2023-01-17T04:22:17.527Z,97060.19
2023-01-17T04:27:14.374Z,97070.88
2023-01-17T04:32:11.006Z,97080.47
2023-01-17T04:37:07.352Z,97090.88
2023-01-17T04:42:03.911Z,97104.28
2023-01-17T04:47:02.000Z,97131.28
2023-01-17T04:51:58.547Z,97133.78
2023-01-17T04:56:54.918Z,97138.63
2023-01-17T05:01:51.326Z,97146.47
2023-01-17T05:06:47.661Z,97156.16
2023-01-17T05:11:44.002Z,97171.84
2023-01-17T05:16:40.675Z,97198.28
2023-01-17T05:21:37.024Z,97214.28
2023-01-17T05:26:33.387Z,97229.16
2023-01-17T05:31:29.983Z,97229.31
2023-01-17T05:36:26.373Z,97230.81
2023-01-17T05:41:22.738Z,97234.13
2023-01-17T05:46:19.375Z,97235.78
2023-01-17T05:51:15.797Z,97243.91
2023-01-17T05:56:12.262Z,97257.25
2023-01-17T06:01:08.670Z,97271.06
2023-01-17T06:06:05.173Z,97286.47
2023-01-17T06:11:01.539Z,97296.84
2023-01-17T06:16:02.688Z,97301.91
2023-01-17T06:20:59.153Z,97307.16
2023-01-17T06:25:55.518Z,97321.19
2023-01-17T06:30:51.942Z,97323.00
2023-01-17T06:35:49.808Z,97329.75
2023-01-17T06:40:46.244Z,97336.78
2023-01-17T06:45:42.601Z,97346.56
2023-01-17T06:50:38.930Z,97349.31
2023-01-17T06:55:37.319Z,97361.16
2023-01-17T07:00:38.199Z,97363.06
2023-01-17T07:05:36.419Z,97367.63
2023-01-17T07:10:32.855Z,97373.31
2023-01-17T07:15:29.244Z,97383.50
2023-01-17T07:20:25.605Z,97390.41
2023-01-17T07:25:22.229Z,97393.97
2023-01-17T07:30:18.733Z,97395.88
2023-01-17T07:35:15.220Z,97401.69
2023-01-17T07:40:11.991Z,97405.41
2023-01-17T07:45:09.066Z,97407.06
2023-01-17T07:50:06.431Z,97417.66
2023-01-17T07:55:02.820Z,97414.91
2023-01-17T07:59:59.219Z,97417.25
2023-01-17T08:04:55.574Z,97424.44
2023-01-17T08:09:52.004Z,97423.72
2023-01-17T08:14:48.356Z,97418.22
2023-01-17T08:19:44.977Z,97426.06
2023-01-17T08:24:42.192Z,97417.97
2023-01-17T08:29:42.015Z,97424.72
2023-01-17T08:34:38.473Z,97433.94
2023-01-17T08:39:34.850Z,97426.25
2023-01-17T08:44:31.474Z,97422.66
2023-01-17T08:49:30.633Z,97414.81
2023-01-17T08:54:27.065Z,97425.00
2023-01-17T08:59:23.838Z,97426.38
2023-01-17T09:04:20.291Z,97438.25
2023-01-17T09:09:17.295Z,97432.59
2023-01-17T09:14:14.024Z,97419.94
2023-01-17T09:19:10.508Z,97427.94
2023-01-17T09:24:07.094Z,97429.75
2023-01-17T09:29:03.603Z,97424.81
2023-01-17T09:34:00.148Z,97433.78
2023-01-17T09:38:58.234Z,97433.22
2023-01-17T09:44:00.843Z,97438.25
2023-01-17T09:49:06.634Z,97443.91
2023-01-17T09:54:03.121Z,97445.44
2023-01-17T09:59:11.667Z,97462.22
2023-01-17T10:04:45.461Z,97458.81
2023-01-17T10:09:47.991Z,97472.38
2023-01-17T10:15:12.615Z,97474.09
2023-01-17T10:20:33.852Z,97478.50
2023-01-17T10:25:46.327Z,97484.84
2023-01-17T10:30:57.845Z,97484.44
2023-01-17T10:36:00.565Z,97480.16
2023-01-17T10:41:09.235Z,97483.47
2023-01-17T10:46:05.876Z,97481.53
2023-01-17T10:51:19.403Z,97488.94
2023-01-17T10:56:18.289Z,97488.41
2023-01-17T11:01:19.738Z,97473.94
2023-01-17T11:06:25.546Z,97484.03
2023-01-17T11:11:25.970Z,97484.00
2023-01-17T11:16:28.703Z,97483.19
2023-01-17T11:21:25.563Z,97484.28
2023-01-17T11:26:25.391Z,97473.81
2023-01-17T11:31:26.479Z,97484.84
2023-01-17T11:36:31.571Z,97473.81
2023-01-17T11:41:36.414Z,97472.97
2023-01-17T11:46:33.510Z,97474.78
2023-01-17T11:51:33.103Z,97470.28
2023-01-17T11:56:35.818Z,97470.38
2023-01-17T12:02:10.001Z,97463.72
2023-01-17T12:07:36.036Z,97470.72
2023-01-17T12:13:03.813Z,97467.06
2023-01-17T12:18:09.034Z,97464.25
2023-01-17T12:23:13.998Z,97460.44
2023-01-17T12:28:22.269Z,97457.41
2023-01-17T12:33:43.814Z,97469.34
2023-01-17T12:38:40.275Z,97462.19
2023-01-17T12:43:40.678Z,97462.31
2023-01-17T12:48:40.334Z,97465.94
2023-01-17T12:53:52.075Z,97463.19
2023-01-17T12:58:53.117Z,97467.72
2023-01-17T13:04:11.328Z,97479.19
2023-01-17T13:09:13.610Z,97470.88
2023-01-17T13:14:10.490Z,97474.69
2023-01-17T13:19:28.884Z,97479.38
2023-01-17T13:24:31.558Z,97483.50
2023-01-17T13:29:37.078Z,97478.38
2023-01-17T13:35:14.463Z,97485.75
2023-01-17T13:40:34.588Z,97492.19
2023-01-17T13:45:36.250Z,97499.16
2023-01-17T13:50:38.886Z,97495.47
2023-01-17T13:55:46.760Z,97493.28
2023-01-17T14:00:43.104Z,97493.25
2023-01-17T14:05:39.447Z,97496.50
2023-01-17T14:10:40.839Z,97498.41
2023-01-17T14:15:49.624Z,97494.84
2023-01-17T14:20:50.221Z,97493.28
2023-01-17T14:25:46.934Z,97494.06
2023-01-17T14:30:43.570Z,97482.47
2023-01-17T14:35:50.968Z,97482.03
2023-01-17T14:40:54.124Z,97479.09
2023-01-17T14:45:57.758Z,97485.84
2023-01-17T14:50:58.577Z,97477.75
2023-01-17T14:55:59.063Z,97485.22
2023-01-17T15:01:01.641Z,97483.53
2023-01-17T15:06:10.253Z,97485.50
2023-01-17T15:11:11.638Z,97495.59
2023-01-17T15:16:24.135Z,97493.41
2023-01-17T15:21:23.368Z,97504.19
2023-01-17T15:26:22.257Z,97506.13
2023-01-17T15:31:24.151Z,97510.78
2023-01-17T15:36:20.513Z,97520.03
2023-01-17T15:41:21.366Z,97515.63
2023-01-17T15:46:29.234Z,97515.88
2023-01-17T15:51:36.090Z,97518.25
2023-01-17T15:56:33.607Z,97524.13
2023-01-17T16:01:30.854Z,97537.66
2023-01-17T16:06:45.435Z,97536.84
2023-01-17T16:11:41.762Z,97530.91
2023-01-17T16:16:38.200Z,97537.78
2023-01-17T16:21:34.612Z,97544.53
2023-01-17T16:26:30.964Z,97541.03
2023-01-17T16:31:27.484Z,97555.06
2023-01-17T16:36:23.842Z,97563.88
2023-01-17T16:41:20.623Z,97566.88
2023-01-17T16:46:20.955Z,97564.59
2023-01-17T16:51:19.229Z,97564.09
2023-01-17T16:56:17.864Z,97571.25
2023-01-17T17:01:17.257Z,97576.03
2023-01-17T17:06:13.932Z,97577.97
2023-01-17T17:11:13.167Z,97586.72
2023-01-17T17:16:14.889Z,97578.03
2023-01-17T17:21:12.120Z,97582.72
2023-01-17T17:26:08.546Z,97585.56
2023-01-17T17:31:07.877Z,97577.50
2023-01-17T17:36:10.307Z,97581.06
2023-01-17T17:41:09.748Z,97589.22
2023-01-17T17:46:06.753Z,97582.09
2023-01-17T17:51:04.264Z,97588.06
2023-01-17T17:56:05.601Z,97599.19
2023-01-17T18:01:03.683Z,97613.44
2023-01-17T18:06:08.855Z,97605.38
2023-01-17T18:11:11.187Z,97610.34
2023-01-17T18:16:11.156Z,97613.38
2023-01-17T18:21:16.394Z,97627.50
2023-01-17T18:26:19.010Z,97622.16
2023-01-17T18:31:15.848Z,97635.66
2023-01-17T18:36:13.335Z,97632.06
2023-01-17T18:41:15.507Z,97641.50
2023-01-17T18:46:12.393Z,97651.22
2023-01-17T18:51:13.686Z,97655.25
2023-01-17T18:56:14.135Z,97653.56
2023-01-17T19:01:16.326Z,97653.63
2023-01-17T19:06:16.849Z,97657.78
2023-01-17T19:11:13.249Z,97659.22
2023-01-17T19:16:14.223Z,97662.78
2023-01-17T19:21:13.966Z,97664.31
2023-01-17T19:26:12.597Z,97664.53
2023-01-17T19:31:13.256Z,97667.03
2023-01-17T19:36:13.535Z,97675.19
2023-01-17T19:41:23.625Z,97676.34
2023-01-17T19:46:20.259Z,97683.13
2023-01-17T19:51:16.721Z,97693.88
2023-01-17T19:56:19.879Z,97698.59
2023-01-17T20:01:25.171Z,97680.78
2023-01-17T20:06:24.130Z,97681.09
2023-01-17T20:11:23.349Z,97701.31
2023-01-17T20:16:21.292Z,97705.50
2023-01-17T20:21:22.948Z,97701.44
2023-01-17T20:26:23.341Z,97703.97
2023-01-17T20:31:24.524Z,97715.69
2023-01-17T20:36:23.145Z,97710.59
2023-01-17T20:41:22.440Z,97718.00
2023-01-17T20:46:21.012Z,97722.59
2023-01-17T20:51:18.372Z,97738.00
2023-01-17T20:56:15.461Z,97738.50
2023-01-17T21:01:19.075Z,97745.50
2023-01-17T21:06:15.566Z,97743.00
2023-01-17T21:11:15.427Z,97741.09
2023-01-17T21:16:14.259Z,97749.34
2023-01-17T21:21:12.775Z,97753.81
2023-01-17T21:26:12.068Z,97756.22
2023-01-17T21:31:22.950Z,97750.28
2023-01-17T21:36:21.651Z,97753.94
2023-01-17T21:41:20.566Z,97755.78
2023-01-17T21:46:16.896Z,97759.59
2023-01-17T21:51:13.498Z,97764.19
2023-01-17T21:56:31.773Z,97760.34
2023-01-17T22:01:32.090Z,97763.59
2023-01-17T22:06:31.559Z,97768.97
2023-01-17T22:11:30.297Z,97775.19
2023-01-17T22:16:26.747Z,97782.81
2023-01-17T22:21:26.187Z,97780.38
2023-01-17T22:26:27.908Z,97776.38
2023-01-17T22:31:26.218Z,97796.59
2023-01-17T22:36:23.452Z,97798.25
2023-01-17T22:41:22.264Z,97791.22
2023-01-17T22:46:24.932Z,97795.91
2023-01-17T22:51:23.523Z,97817.63
2023-01-17T22:56:22.818Z,97805.22
2023-01-17T23:01:24.630Z,97810.41
2023-01-17T23:06:27.239Z,97822.97
2023-01-17T23:11:43.661Z,97826.63
2023-01-17T23:17:02.363Z,97820.50
2023-01-17T23:22:18.475Z,97824.88
2023-01-17T23:27:37.379Z,97839.06
2023-01-17T23:32:33.788Z,97834.34
2023-01-17T23:37:49.584Z,97836.94
2023-01-17T23:43:04.698Z,97836.94
2023-01-17T23:48:01.782Z,97833.94
2023-01-17T23:52:58.556Z,97830.47
2023-01-17T23:57:55.974Z,97832.38
